sensor_id;sensor_type;location;lat;lon;timestamp;P1;P2;P0
60816;PMS5003;51921;51.518;-3.188;2023-07-20T00:00:20;4;4;
60816;PMS5003;51921;51.518;-3.188;2023-07-20T00:02:49;4;4;
60816;PMS5003;51921;51.518;-3.188;2023-07-20T00:05:11;4;4;
60816;PMS5003;51921;51.518;-3.188;2023-07-20T00:07:37;4;4;
60816;PMS5003;51921;51.518;-3.188;2023-07-20T00:10:02;5;5;
60816;PMS5003;51921;51.518;-3.188;2023-07-20T00:12:28;5;4;
60816;PMS5003;51921;51.518;-3.188;2023-07-20T00:14:53;3;3;
60816;PMS5003;51921;51.518;-3.188;2023-07-20T00:17:19;4;3;
60816;PMS5003;51921;51.518;-3.188;2023-07-20T00:19:44;3;3;
60816;PMS5003;51921;51.518;-3.188;2023-07-20T00:22:09;4;4;
60816;PMS5003;51921;51.518;-3.188;2023-07-20T00:24:35;4;4;
60816;PMS5003;51921;51.518;-3.188;2023-07-20T00:27:00;4;4;
60816;PMS5003;51921;51.518;-3.188;2023-07-20T00:29:25;4;4;
60816;PMS5003;51921;51.518;-3.188;2023-07-20T00:31:51;3;3;
60816;PMS5003;51921;51.518;-3.188;2023-07-20T00:34:16;3;3;
60816;PMS5003;51921;51.518;-3.188;2023-07-20T00:36:42;3;3;
60816;PMS5003;51921;51.518;-3.188;2023-07-20T00:39:07;3;3;
60816;PMS5003;51921;51.518;-3.188;2023-07-20T00:41:33;4;4;
60816;PMS5003;51921;51.518;-3.188;2023-07-20T00:43:58;3;3;
60816;PMS5003;51921;51.518;-3.188;2023-07-20T00:46:23;4;4;
60816;PMS5003;51921;51.518;-3.188;2023-07-20T00:48:49;2;2;
60816;PMS5003;51921;51.518;-3.188;2023-07-20T00:51:14;3;3;
60816;PMS5003;51921;51.518;-3.188;2023-07-20T00:53:40;5;5;
60816;PMS5003;51921;51.518;-3.188;2023-07-20T00:56:05;4;4;
60816;PMS5003;51921;51.518;-3.188;2023-07-20T00:58:30;3;3;
60816;PMS5003;51921;51.518;-3.188;2023-07-20T01:00:56;4;4;
60816;PMS5003;51921;51.518;-3.188;2023-07-20T01:03:21;4;4;
60816;PMS5003;51921;51.518;-3.188;2023-07-20T01:05:48;3;3;
60816;PMS5003;51921;51.518;-3.188;2023-07-20T01:08:14;3;3;
60816;PMS5003;51921;51.518;-3.188;2023-07-20T01:10:39;4;4;
60816;PMS5003;51921;51.518;-3.188;2023-07-20T01:13:03;5;4;
60816;PMS5003;51921;51.518;-3.188;2023-07-20T01:15:28;5;5;
60816;PMS5003;51921;51.518;-3.188;2023-07-20T01:17:54;3;3;
60816;PMS5003;51921;51.518;-3.188;2023-07-20T01:20:20;5;5;
60816;PMS5003;51921;51.518;-3.188;2023-07-20T01:22:55;5;4;
60816;PMS5003;51921;51.518;-3.188;2023-07-20T01:25:21;4;4;
60816;PMS5003;51921;51.518;-3.188;2023-07-20T01:30:06;5;5;
60816;PMS5003;51921;51.518;-3.188;2023-07-20T01:32:26;6;4;
60816;PMS5003;51921;51.518;-3.188;2023-07-20T01:34:52;5;4;
60816;PMS5003;51921;51.518;-3.188;2023-07-20T01:37:17;3;3;
60816;PMS5003;51921;51.518;-3.188;2023-07-20T01:39:43;4;4;
60816;PMS5003;51921;51.518;-3.188;2023-07-20T01:42:08;3;3;
60816;PMS5003;51921;51.518;-3.188;2023-07-20T01:44:34;5;4;
60816;PMS5003;51921;51.518;-3.188;2023-07-20T01:46:59;5;5;
60816;PMS5003;51921;51.518;-3.188;2023-07-20T01:49:24;4;3;
60816;PMS5003;51921;51.518;-3.188;2023-07-20T01:51:50;4;4;
60816;PMS5003;51921;51.518;-3.188;2023-07-20T01:54:15;3;3;
60816;PMS5003;51921;51.518;-3.188;2023-07-20T01:56:41;5;3;
60816;PMS5003;51921;51.518;-3.188;2023-07-20T01:59:06;4;4;
60816;PMS5003;51921;51.518;-3.188;2023-07-20T02:01:32;4;4;
60816;PMS5003;51921;51.518;-3.188;2023-07-20T02:03:57;4;4;
60816;PMS5003;51921;51.518;-3.188;2023-07-20T02:06:22;6;5;
60816;PMS5003;51921;51.518;-3.188;2023-07-20T02:08:48;4;4;
60816;PMS5003;51921;51.518;-3.188;2023-07-20T02:11:13;3;3;
60816;PMS5003;51921;51.518;-3.188;2023-07-20T02:13:39;4;4;
60816;PMS5003;51921;51.518;-3.188;2023-07-20T02:16:04;5;5;
60816;PMS5003;51921;51.518;-3.188;2023-07-20T02:18:30;3;3;
60816;PMS5003;51921;51.518;-3.188;2023-07-20T02:20:55;3;3;
60816;PMS5003;51921;51.518;-3.188;2023-07-20T02:23:20;4;4;
60816;PMS5003;51921;51.518;-3.188;2023-07-20T02:25:45;4;4;
60816;PMS5003;51921;51.518;-3.188;2023-07-20T02:28:12;4;4;
60816;PMS5003;51921;51.518;-3.188;2023-07-20T02:30:37;5;5;
60816;PMS5003;51921;51.518;-3.188;2023-07-20T02:33:02;6;5;
60816;PMS5003;51921;51.518;-3.188;2023-07-20T02:35:27;5;5;
60816;PMS5003;51921;51.518;-3.188;2023-07-20T02:37:53;4;4;
60816;PMS5003;51921;51.518;-3.188;2023-07-20T02:40:18;5;4;
60816;PMS5003;51921;51.518;-3.188;2023-07-20T02:42:43;4;4;
60816;PMS5003;51921;51.518;-3.188;2023-07-20T02:45:09;4;4;
60816;PMS5003;51921;51.518;-3.188;2023-07-20T02:47:34;5;5;
60816;PMS5003;51921;51.518;-3.188;2023-07-20T02:50:00;5;5;
60816;PMS5003;51921;51.518;-3.188;2023-07-20T02:52:25;4;4;
60816;PMS5003;51921;51.518;-3.188;2023-07-20T02:54:51;3;3;
60816;PMS5003;51921;51.518;-3.188;2023-07-20T02:57:16;5;5;
60816;PMS5003;51921;51.518;-3.188;2023-07-20T02:59:42;3;3;
60816;PMS5003;51921;51.518;-3.188;2023-07-20T03:02:07;5;5;
60816;PMS5003;51921;51.518;-3.188;2023-07-20T03:04:33;5;5;
60816;PMS5003;51921;51.518;-3.188;2023-07-20T03:06:58;5;5;
60816;PMS5003;51921;51.518;-3.188;2023-07-20T03:09:23;6;4;
60816;PMS5003;51921;51.518;-3.188;2023-07-20T03:11:49;5;5;
60816;PMS5003;51921;51.518;-3.188;2023-07-20T03:14:14;4;4;
60816;PMS5003;51921;51.518;-3.188;2023-07-20T03:16:40;4;4;
60816;PMS5003;51921;51.518;-3.188;2023-07-20T03:19:05;4;4;
60816;PMS5003;51921;51.518;-3.188;2023-07-20T03:21:31;5;4;
60816;PMS5003;51921;51.518;-3.188;2023-07-20T03:23:56;4;4;
60816;PMS5003;51921;51.518;-3.188;2023-07-20T03:26:22;3;3;
60816;PMS5003;51921;51.518;-3.188;2023-07-20T03:28:47;4;4;
60816;PMS5003;51921;51.518;-3.188;2023-07-20T03:31:13;4;4;
60816;PMS5003;51921;51.518;-3.188;2023-07-20T03:33:38;3;3;
60816;PMS5003;51921;51.518;-3.188;2023-07-20T03:36:03;3;3;
60816;PMS5003;51921;51.518;-3.188;2023-07-20T03:38:29;4;4;
60816;PMS5003;51921;51.518;-3.188;2023-07-20T03:40:55;5;5;
60816;PMS5003;51921;51.518;-3.188;2023-07-20T03:43:20;8;6;
60816;PMS5003;51921;51.518;-3.188;2023-07-20T03:45:45;5;4;
60816;PMS5003;51921;51.518;-3.188;2023-07-20T03:48:11;5;5;
60816;PMS5003;51921;51.518;-3.188;2023-07-20T03:50:36;4;4;
60816;PMS5003;51921;51.518;-3.188;2023-07-20T03:53:01;5;5;
60816;PMS5003;51921;51.518;-3.188;2023-07-20T03:55:27;5;5;
60816;PMS5003;51921;51.518;-3.188;2023-07-20T03:57:52;6;5;
60816;PMS5003;51921;51.518;-3.188;2023-07-20T04:00:18;5;5;
60816;PMS5003;51921;51.518;-3.188;2023-07-20T04:02:43;5;5;
60816;PMS5003;51921;51.518;-3.188;2023-07-20T04:05:09;6;6;
60816;PMS5003;51921;51.518;-3.188;2023-07-20T04:07:34;4;4;
60816;PMS5003;51921;51.518;-3.188;2023-07-20T04:10:00;4;4;
60816;PMS5003;51921;51.518;-3.188;2023-07-20T04:12:25;5;5;
60816;PMS5003;51921;51.518;-3.188;2023-07-20T04:14:51;5;5;
60816;PMS5003;51921;51.518;-3.188;2023-07-20T04:17:17;5;5;
60816;PMS5003;51921;51.518;-3.188;2023-07-20T04:19:41;7;6;
60816;PMS5003;51921;51.518;-3.188;2023-07-20T04:22:07;5;4;
60816;PMS5003;51921;51.518;-3.188;2023-07-20T04:24:32;5;5;
60816;PMS5003;51921;51.518;-3.188;2023-07-20T04:26:58;5;5;
60816;PMS5003;51921;51.518;-3.188;2023-07-20T04:29:23;5;5;
60816;PMS5003;51921;51.518;-3.188;2023-07-20T04:31:49;5;5;
60816;PMS5003;51921;51.518;-3.188;2023-07-20T04:34:14;5;5;
60816;PMS5003;51921;51.518;-3.188;2023-07-20T04:36:40;5;4;
60816;PMS5003;51921;51.518;-3.188;2023-07-20T04:39:05;5;4;
60816;PMS5003;51921;51.518;-3.188;2023-07-20T04:41:31;5;4;
60816;PMS5003;51921;51.518;-3.188;2023-07-20T04:43:56;4;4;
60816;PMS5003;51921;51.518;-3.188;2023-07-20T04:46:22;6;5;
60816;PMS5003;51921;51.518;-3.188;2023-07-20T04:48:47;5;5;
60816;PMS5003;51921;51.518;-3.188;2023-07-20T04:51:12;6;5;
60816;PMS5003;51921;51.518;-3.188;2023-07-20T04:53:38;6;6;
60816;PMS5003;51921;51.518;-3.188;2023-07-20T04:56:03;4;4;
60816;PMS5003;51921;51.518;-3.188;2023-07-20T04:58:29;6;6;
60816;PMS5003;51921;51.518;-3.188;2023-07-20T05:00:54;6;6;
60816;PMS5003;51921;51.518;-3.188;2023-07-20T05:03:20;4;4;
60816;PMS5003;51921;51.518;-3.188;2023-07-20T05:05:46;7;5;
60816;PMS5003;51921;51.518;-3.188;2023-07-20T05:08:11;6;6;
60816;PMS5003;51921;51.518;-3.188;2023-07-20T05:10:36;6;6;
60816;PMS5003;51921;51.518;-3.188;2023-07-20T05:13:02;6;6;
60816;PMS5003;51921;51.518;-3.188;2023-07-20T05:15:27;5;5;
60816;PMS5003;51921;51.518;-3.188;2023-07-20T05:17:52;6;5;
60816;PMS5003;51921;51.518;-3.188;2023-07-20T05:20:18;6;6;
60816;PMS5003;51921;51.518;-3.188;2023-07-20T05:22:43;8;8;
60816;PMS5003;51921;51.518;-3.188;2023-07-20T05:25:09;7;6;
60816;PMS5003;51921;51.518;-3.188;2023-07-20T05:27:34;6;6;
60816;PMS5003;51921;51.518;-3.188;2023-07-20T05:30:00;5;4;
60816;PMS5003;51921;51.518;-3.188;2023-07-20T05:32:25;6;6;
60816;PMS5003;51921;51.518;-3.188;2023-07-20T05:34:51;7;7;
60816;PMS5003;51921;51.518;-3.188;2023-07-20T05:37:16;6;6;
60816;PMS5003;51921;51.518;-3.188;2023-07-20T05:39:41;7;7;
60816;PMS5003;51921;51.518;-3.188;2023-07-20T05:42:07;6;5;
60816;PMS5003;51921;51.518;-3.188;2023-07-20T05:44:32;8;7;
60816;PMS5003;51921;51.518;-3.188;2023-07-20T05:46:58;5;5;
60816;PMS5003;51921;51.518;-3.188;2023-07-20T05:49:23;5;5;
60816;PMS5003;51921;51.518;-3.188;2023-07-20T05:51:49;7;7;
60816;PMS5003;51921;51.518;-3.188;2023-07-20T05:54:14;6;6;
60816;PMS5003;51921;51.518;-3.188;2023-07-20T05:56:40;6;5;
60816;PMS5003;51921;51.518;-3.188;2023-07-20T05:59:05;7;6;
60816;PMS5003;51921;51.518;-3.188;2023-07-20T06:01:31;4;4;
60816;PMS5003;51921;51.518;-3.188;2023-07-20T06:03:56;5;5;
60816;PMS5003;51921;51.518;-3.188;2023-07-20T06:06:21;5;5;
60816;PMS5003;51921;51.518;-3.188;2023-07-20T06:08:47;6;5;
60816;PMS5003;51921;51.518;-3.188;2023-07-20T06:11:12;7;6;
60816;PMS5003;51921;51.518;-3.188;2023-07-20T06:13:38;6;6;
60816;PMS5003;51921;51.518;-3.188;2023-07-20T06:16:03;6;6;
60816;PMS5003;51921;51.518;-3.188;2023-07-20T06:18:29;7;7;
60816;PMS5003;51921;51.518;-3.188;2023-07-20T06:20:54;6;6;
60816;PMS5003;51921;51.518;-3.188;2023-07-20T06:23:20;6;6;
60816;PMS5003;51921;51.518;-3.188;2023-07-20T06:25:45;5;5;
60816;PMS5003;51921;51.518;-3.188;2023-07-20T06:28:10;6;6;
60816;PMS5003;51921;51.518;-3.188;2023-07-20T06:30:36;5;5;
60816;PMS5003;51921;51.518;-3.188;2023-07-20T06:33:01;6;5;
60816;PMS5003;51921;51.518;-3.188;2023-07-20T06:35:27;6;6;
60816;PMS5003;51921;51.518;-3.188;2023-07-20T06:37:52;5;5;
60816;PMS5003;51921;51.518;-3.188;2023-07-20T06:40:17;8;7;
60816;PMS5003;51921;51.518;-3.188;2023-07-20T06:42:43;7;6;
60816;PMS5003;51921;51.518;-3.188;2023-07-20T06:45:09;6;6;
60816;PMS5003;51921;51.518;-3.188;2023-07-20T06:47:34;7;7;
60816;PMS5003;51921;51.518;-3.188;2023-07-20T06:49:59;8;7;
60816;PMS5003;51921;51.518;-3.188;2023-07-20T06:52:25;7;7;
60816;PMS5003;51921;51.518;-3.188;2023-07-20T06:54:50;7;7;
60816;PMS5003;51921;51.518;-3.188;2023-07-20T06:57:15;5;5;
60816;PMS5003;51921;51.518;-3.188;2023-07-20T06:59:41;5;5;
60816;PMS5003;51921;51.518;-3.188;2023-07-20T07:02:06;6;6;
60816;PMS5003;51921;51.518;-3.188;2023-07-20T07:04:32;6;6;
60816;PMS5003;51921;51.518;-3.188;2023-07-20T07:06:58;8;7;
60816;PMS5003;51921;51.518;-3.188;2023-07-20T07:09:22;5;5;
60816;PMS5003;51921;51.518;-3.188;2023-07-20T07:11:48;6;6;
60816;PMS5003;51921;51.518;-3.188;2023-07-20T07:14:13;6;6;
60816;PMS5003;51921;51.518;-3.188;2023-07-20T07:16:39;6;5;
60816;PMS5003;51921;51.518;-3.188;2023-07-20T07:19:04;4;4;
60816;PMS5003;51921;51.518;-3.188;2023-07-20T07:21:29;5;5;
60816;PMS5003;51921;51.518;-3.188;2023-07-20T07:23:55;5;4;
60816;PMS5003;51921;51.518;-3.188;2023-07-20T07:26:20;5;5;
60816;PMS5003;51921;51.518;-3.188;2023-07-20T07:28:46;4;4;
60816;PMS5003;51921;51.518;-3.188;2023-07-20T07:31:11;5;4;
60816;PMS5003;51921;51.518;-3.188;2023-07-20T07:33:36;5;4;
60816;PMS5003;51921;51.518;-3.188;2023-07-20T07:36:01;3;3;
60816;PMS5003;51921;51.518;-3.188;2023-07-20T07:38:27;5;5;
60816;PMS5003;51921;51.518;-3.188;2023-07-20T07:40:52;4;4;
60816;PMS5003;51921;51.518;-3.188;2023-07-20T07:43:17;3;3;
60816;PMS5003;51921;51.518;-3.188;2023-07-20T07:45:42;3;3;
60816;PMS5003;51921;51.518;-3.188;2023-07-20T07:48:08;3;3;
60816;PMS5003;51921;51.518;-3.188;2023-07-20T07:50:33;4;4;
60816;PMS5003;51921;51.518;-3.188;2023-07-20T07:52:58;5;3;
60816;PMS5003;51921;51.518;-3.188;2023-07-20T07:55:24;2;2;
60816;PMS5003;51921;51.518;-3.188;2023-07-20T07:57:49;4;4;
60816;PMS5003;51921;51.518;-3.188;2023-07-20T08:00:14;3;3;
60816;PMS5003;51921;51.518;-3.188;2023-07-20T08:02:39;6;5;
60816;PMS5003;51921;51.518;-3.188;2023-07-20T08:05:04;3;3;
60816;PMS5003;51921;51.518;-3.188;2023-07-20T08:07:30;3;3;
60816;PMS5003;51921;51.518;-3.188;2023-07-20T08:09:55;3;2;
60816;PMS5003;51921;51.518;-3.188;2023-07-20T08:12:20;2;2;
60816;PMS5003;51921;51.518;-3.188;2023-07-20T08:14:45;2;2;
60816;PMS5003;51921;51.518;-3.188;2023-07-20T08:17:10;3;3;
60816;PMS5003;51921;51.518;-3.188;2023-07-20T08:19:36;1;1;
60816;PMS5003;51921;51.518;-3.188;2023-07-20T08:22:01;3;3;
60816;PMS5003;51921;51.518;-3.188;2023-07-20T08:24:26;3;3;
60816;PMS5003;51921;51.518;-3.188;2023-07-20T08:26:51;3;3;
60816;PMS5003;51921;51.518;-3.188;2023-07-20T08:29:16;4;4;
60816;PMS5003;51921;51.518;-3.188;2023-07-20T08:31:42;1;1;
60816;PMS5003;51921;51.518;-3.188;2023-07-20T08:34:07;3;3;
60816;PMS5003;51921;51.518;-3.188;2023-07-20T08:36:32;4;4;
60816;PMS5003;51921;51.518;-3.188;2023-07-20T08:38:57;5;5;
60816;PMS5003;51921;51.518;-3.188;2023-07-20T08:41:23;3;3;
60816;PMS5003;51921;51.518;-3.188;2023-07-20T08:43:48;3;3;
60816;PMS5003;51921;51.518;-3.188;2023-07-20T08:46:13;4;4;
60816;PMS5003;51921;51.518;-3.188;2023-07-20T08:48:39;2;2;
60816;PMS5003;51921;51.518;-3.188;2023-07-20T08:51:04;3;3;
60816;PMS5003;51921;51.518;-3.188;2023-07-20T08:53:29;3;2;
60816;PMS5003;51921;51.518;-3.188;2023-07-20T08:55:54;4;3;
60816;PMS5003;51921;51.518;-3.188;2023-07-20T08:58:20;2;2;
60816;PMS5003;51921;51.518;-3.188;2023-07-20T09:00:45;4;4;
60816;PMS5003;51921;51.518;-3.188;2023-07-20T09:03:10;3;3;
60816;PMS5003;51921;51.518;-3.188;2023-07-20T09:05:36;2;2;
60816;PMS5003;51921;51.518;-3.188;2023-07-20T09:08:01;4;4;
60816;PMS5003;51921;51.518;-3.188;2023-07-20T09:10:26;4;4;
60816;PMS5003;51921;51.518;-3.188;2023-07-20T09:12:51;3;3;
60816;PMS5003;51921;51.518;-3.188;2023-07-20T09:15:16;3;3;
60816;PMS5003;51921;51.518;-3.188;2023-07-20T09:17:45;3;3;
60816;PMS5003;51921;51.518;-3.188;2023-07-20T09:20:08;4;3;
60816;PMS5003;51921;51.518;-3.188;2023-07-20T09:22:32;4;4;
60816;PMS5003;51921;51.518;-3.188;2023-07-20T09:24:57;4;4;
60816;PMS5003;51921;51.518;-3.188;2023-07-20T09:27:23;4;3;
60816;PMS5003;51921;51.518;-3.188;2023-07-20T09:29:48;4;4;
60816;PMS5003;51921;51.518;-3.188;2023-07-20T09:32:13;4;4;
60816;PMS5003;51921;51.518;-3.188;2023-07-20T09:34:38;5;4;
60816;PMS5003;51921;51.518;-3.188;2023-07-20T09:37:04;7;7;
60816;PMS5003;51921;51.518;-3.188;2023-07-20T09:39:29;5;5;
60816;PMS5003;51921;51.518;-3.188;2023-07-20T09:41:54;5;5;
60816;PMS5003;51921;51.518;-3.188;2023-07-20T09:44:19;7;7;
60816;PMS5003;51921;51.518;-3.188;2023-07-20T09:46:45;7;7;
60816;PMS5003;51921;51.518;-3.188;2023-07-20T09:49:10;6;6;
60816;PMS5003;51921;51.518;-3.188;2023-07-20T09:51:35;5;5;
60816;PMS5003;51921;51.518;-3.188;2023-07-20T09:54:01;6;6;
60816;PMS5003;51921;51.518;-3.188;2023-07-20T09:56:26;6;6;
60816;PMS5003;51921;51.518;-3.188;2023-07-20T09:58:51;5;5;
60816;PMS5003;51921;51.518;-3.188;2023-07-20T10:01:17;6;6;
60816;PMS5003;51921;51.518;-3.188;2023-07-20T10:03:42;7;7;
60816;PMS5003;51921;51.518;-3.188;2023-07-20T10:06:08;6;6;
60816;PMS5003;51921;51.518;-3.188;2023-07-20T10:08:33;5;5;
60816;PMS5003;51921;51.518;-3.188;2023-07-20T10:10:58;6;6;
60816;PMS5003;51921;51.518;-3.188;2023-07-20T10:13:25;4;4;
60816;PMS5003;51921;51.518;-3.188;2023-07-20T10:15:50;4;4;
60816;PMS5003;51921;51.518;-3.188;2023-07-20T10:18:15;6;6;
60816;PMS5003;51921;51.518;-3.188;2023-07-20T10:20:39;6;6;
60816;PMS5003;51921;51.518;-3.188;2023-07-20T10:23:04;5;5;
60816;PMS5003;51921;51.518;-3.188;2023-07-20T10:25:30;6;5;
60816;PMS5003;51921;51.518;-3.188;2023-07-20T10:27:55;8;8;
60816;PMS5003;51921;51.518;-3.188;2023-07-20T10:30:20;8;8;
60816;PMS5003;51921;51.518;-3.188;2023-07-20T10:32:46;9;9;
60816;PMS5003;51921;51.518;-3.188;2023-07-20T10:35:12;8;8;
60816;PMS5003;51921;51.518;-3.188;2023-07-20T10:42:28;9;8;
60816;PMS5003;51921;51.518;-3.188;2023-07-20T10:44:52;8;8;
60816;PMS5003;51921;51.518;-3.188;2023-07-20T10:47:18;9;9;
60816;PMS5003;51921;51.518;-3.188;2023-07-20T10:52:08;13;11;
60816;PMS5003;51921;51.518;-3.188;2023-07-20T10:54:34;8;8;
60816;PMS5003;51921;51.518;-3.188;2023-07-20T10:57:21;10;10;
60816;PMS5003;51921;51.518;-3.188;2023-07-20T11:01:50;8;8;
60816;PMS5003;51921;51.518;-3.188;2023-07-20T11:04:15;40;37;
60816;PMS5003;51921;51.518;-3.188;2023-07-20T11:06:42;17;16;
60816;PMS5003;51921;51.518;-3.188;2023-07-20T11:09:06;11;11;
60816;PMS5003;51921;51.518;-3.188;2023-07-20T11:11:32;13;11;
60816;PMS5003;51921;51.518;-3.188;2023-07-20T11:13:58;20;19;
60816;PMS5003;51921;51.518;-3.188;2023-07-20T11:18:48;9;9;
60816;PMS5003;51921;51.518;-3.188;2023-07-20T11:21:14;9;9;
60816;PMS5003;51921;51.518;-3.188;2023-07-20T11:23:38;10;10;
60816;PMS5003;51921;51.518;-3.188;2023-07-20T11:26:04;14;13;
60816;PMS5003;51921;51.518;-3.188;2023-07-20T11:28:29;12;12;
60816;PMS5003;51921;51.518;-3.188;2023-07-20T11:30:54;9;9;
60816;PMS5003;51921;51.518;-3.188;2023-07-20T11:33:20;8;8;
60816;PMS5003;51921;51.518;-3.188;2023-07-20T11:35:45;7;7;
60816;PMS5003;51921;51.518;-3.188;2023-07-20T11:38:11;9;8;
60816;PMS5003;51921;51.518;-3.188;2023-07-20T11:40:36;9;9;
60816;PMS5003;51921;51.518;-3.188;2023-07-20T11:43:01;9;8;
60816;PMS5003;51921;51.518;-3.188;2023-07-20T11:45:26;9;9;
60816;PMS5003;51921;51.518;-3.188;2023-07-20T11:47:52;9;9;
60816;PMS5003;51921;51.518;-3.188;2023-07-20T11:50:17;8;8;
60816;PMS5003;51921;51.518;-3.188;2023-07-20T11:52:42;7;6;
60816;PMS5003;51921;51.518;-3.188;2023-07-20T11:55:08;9;9;
60816;PMS5003;51921;51.518;-3.188;2023-07-20T11:57:33;7;7;
60816;PMS5003;51921;51.518;-3.188;2023-07-20T12:00:00;8;6;
60816;PMS5003;51921;51.518;-3.188;2023-07-20T12:02:23;7;7;
60816;PMS5003;51921;51.518;-3.188;2023-07-20T12:04:49;8;8;
60816;PMS5003;51921;51.518;-3.188;2023-07-20T12:07:14;8;8;
60816;PMS5003;51921;51.518;-3.188;2023-07-20T12:09:39;9;9;
60816;PMS5003;51921;51.518;-3.188;2023-07-20T12:12:09;11;10;
60816;PMS5003;51921;51.518;-3.188;2023-07-20T12:14:30;13;13;
60816;PMS5003;51921;51.518;-3.188;2023-07-20T12:16:55;14;13;
60816;PMS5003;51921;51.518;-3.188;2023-07-20T12:19:21;11;11;
60816;PMS5003;51921;51.518;-3.188;2023-07-20T12:21:46;10;10;
60816;PMS5003;51921;51.518;-3.188;2023-07-20T12:24:11;10;9;
60816;PMS5003;51921;51.518;-3.188;2023-07-20T12:26:37;10;10;
60816;PMS5003;51921;51.518;-3.188;2023-07-20T12:29:02;12;12;
60816;PMS5003;51921;51.518;-3.188;2023-07-20T12:31:27;12;12;
60816;PMS5003;51921;51.518;-3.188;2023-07-20T12:33:53;11;10;
60816;PMS5003;51921;51.518;-3.188;2023-07-20T12:36:18;11;11;
60816;PMS5003;51921;51.518;-3.188;2023-07-20T12:38:43;8;8;
60816;PMS5003;51921;51.518;-3.188;2023-07-20T12:41:09;9;9;
60816;PMS5003;51921;51.518;-3.188;2023-07-20T12:43:34;10;10;
60816;PMS5003;51921;51.518;-3.188;2023-07-20T12:45:59;9;9;
60816;PMS5003;51921;51.518;-3.188;2023-07-20T12:48:24;9;9;
60816;PMS5003;51921;51.518;-3.188;2023-07-20T12:50:50;11;11;
60816;PMS5003;51921;51.518;-3.188;2023-07-20T12:53:15;11;11;
60816;PMS5003;51921;51.518;-3.188;2023-07-20T12:55:41;10;10;
60816;PMS5003;51921;51.518;-3.188;2023-07-20T12:58:06;10;9;
60816;PMS5003;51921;51.518;-3.188;2023-07-20T13:00:31;10;10;
60816;PMS5003;51921;51.518;-3.188;2023-07-20T13:02:57;10;10;
60816;PMS5003;51921;51.518;-3.188;2023-07-20T13:05:22;11;10;
60816;PMS5003;51921;51.518;-3.188;2023-07-20T13:07:47;7;7;
60816;PMS5003;51921;51.518;-3.188;2023-07-20T13:10:13;8;8;
60816;PMS5003;51921;51.518;-3.188;2023-07-20T13:12:38;11;10;
60816;PMS5003;51921;51.518;-3.188;2023-07-20T13:15:04;9;9;
60816;PMS5003;51921;51.518;-3.188;2023-07-20T13:17:29;10;9;
60816;PMS5003;51921;51.518;-3.188;2023-07-20T13:19:54;8;8;
60816;PMS5003;51921;51.518;-3.188;2023-07-20T13:22:19;9;9;
60816;PMS5003;51921;51.518;-3.188;2023-07-20T13:24:45;9;9;
60816;PMS5003;51921;51.518;-3.188;2023-07-20T13:27:10;10;10;
60816;PMS5003;51921;51.518;-3.188;2023-07-20T13:29:35;10;9;
60816;PMS5003;51921;51.518;-3.188;2023-07-20T13:32:01;8;8;
60816;PMS5003;51921;51.518;-3.188;2023-07-20T13:34:26;11;11;
60816;PMS5003;51921;51.518;-3.188;2023-07-20T13:36:51;9;8;
60816;PMS5003;51921;51.518;-3.188;2023-07-20T13:39:16;11;10;
60816;PMS5003;51921;51.518;-3.188;2023-07-20T13:41:41;7;7;
60816;PMS5003;51921;51.518;-3.188;2023-07-20T13:44:07;5;5;
60816;PMS5003;51921;51.518;-3.188;2023-07-20T13:46:33;5;5;
60816;PMS5003;51921;51.518;-3.188;2023-07-20T13:48:57;6;5;
60816;PMS5003;51921;51.518;-3.188;2023-07-20T13:51:23;7;6;
60816;PMS5003;51921;51.518;-3.188;2023-07-20T13:53:48;4;4;
60816;PMS5003;51921;51.518;-3.188;2023-07-20T13:56:13;4;4;
60816;PMS5003;51921;51.518;-3.188;2023-07-20T13:58:39;4;4;
60816;PMS5003;51921;51.518;-3.188;2023-07-20T14:01:04;3;3;
60816;PMS5003;51921;51.518;-3.188;2023-07-20T14:03:29;5;5;
60816;PMS5003;51921;51.518;-3.188;2023-07-20T14:05:55;4;4;
60816;PMS5003;51921;51.518;-3.188;2023-07-20T14:08:20;5;5;
60816;PMS5003;51921;51.518;-3.188;2023-07-20T14:10:46;4;4;
60816;PMS5003;51921;51.518;-3.188;2023-07-20T14:13:11;4;4;
60816;PMS5003;51921;51.518;-3.188;2023-07-20T14:15:36;4;4;
60816;PMS5003;51921;51.518;-3.188;2023-07-20T14:18:02;4;4;
60816;PMS5003;51921;51.518;-3.188;2023-07-20T14:20:27;5;4;
60816;PMS5003;51921;51.518;-3.188;2023-07-20T14:22:53;5;5;
60816;PMS5003;51921;51.518;-3.188;2023-07-20T14:25:18;4;4;
60816;PMS5003;51921;51.518;-3.188;2023-07-20T14:27:43;1;1;
60816;PMS5003;51921;51.518;-3.188;2023-07-20T14:30:09;4;4;
60816;PMS5003;51921;51.518;-3.188;2023-07-20T14:32:34;3;3;
60816;PMS5003;51921;51.518;-3.188;2023-07-20T14:34:59;5;4;
60816;PMS5003;51921;51.518;-3.188;2023-07-20T14:37:25;3;3;
60816;PMS5003;51921;51.518;-3.188;2023-07-20T14:39:50;2;2;
60816;PMS5003;51921;51.518;-3.188;2023-07-20T14:42:16;1;1;
60816;PMS5003;51921;51.518;-3.188;2023-07-20T14:44:41;3;3;
60816;PMS5003;51921;51.518;-3.188;2023-07-20T14:47:06;3;3;
60816;PMS5003;51921;51.518;-3.188;2023-07-20T14:49:32;4;4;
60816;PMS5003;51921;51.518;-3.188;2023-07-20T14:51:57;3;3;
60816;PMS5003;51921;51.518;-3.188;2023-07-20T14:54:22;5;5;
60816;PMS5003;51921;51.518;-3.188;2023-07-20T14:56:49;5;4;
60816;PMS5003;51921;51.518;-3.188;2023-07-20T14:59:13;4;3;
60816;PMS5003;51921;51.518;-3.188;2023-07-20T15:01:38;1;1;
60816;PMS5003;51921;51.518;-3.188;2023-07-20T15:04:04;3;3;
60816;PMS5003;51921;51.518;-3.188;2023-07-20T15:06:29;4;3;
60816;PMS5003;51921;51.518;-3.188;2023-07-20T15:08:54;4;4;
60816;PMS5003;51921;51.518;-3.188;2023-07-20T15:11:20;4;3;
60816;PMS5003;51921;51.518;-3.188;2023-07-20T15:13:45;5;5;
60816;PMS5003;51921;51.518;-3.188;2023-07-20T15:16:11;3;3;
60816;PMS5003;51921;51.518;-3.188;2023-07-20T15:18:36;3;3;
60816;PMS5003;51921;51.518;-3.188;2023-07-20T15:21:01;3;3;
60816;PMS5003;51921;51.518;-3.188;2023-07-20T15:23:27;5;5;
60816;PMS5003;51921;51.518;-3.188;2023-07-20T15:25:52;3;3;
60816;PMS5003;51921;51.518;-3.188;2023-07-20T15:28:17;3;3;
60816;PMS5003;51921;51.518;-3.188;2023-07-20T15:30:43;4;4;
60816;PMS5003;51921;51.518;-3.188;2023-07-20T15:33:08;3;3;
60816;PMS5003;51921;51.518;-3.188;2023-07-20T15:35:33;5;5;
60816;PMS5003;51921;51.518;-3.188;2023-07-20T15:37:59;2;2;
60816;PMS5003;51921;51.518;-3.188;2023-07-20T15:40:24;4;4;
60816;PMS5003;51921;51.518;-3.188;2023-07-20T15:42:50;7;6;
60816;PMS5003;51921;51.518;-3.188;2023-07-20T15:45:15;6;5;
60816;PMS5003;51921;51.518;-3.188;2023-07-20T15:47:40;3;3;
60816;PMS5003;51921;51.518;-3.188;2023-07-20T15:50:06;4;4;
60816;PMS5003;51921;51.518;-3.188;2023-07-20T15:52:31;4;3;
60816;PMS5003;51921;51.518;-3.188;2023-07-20T15:54:56;3;3;
60816;PMS5003;51921;51.518;-3.188;2023-07-20T15:57:22;4;4;
60816;PMS5003;51921;51.518;-3.188;2023-07-20T15:59:47;4;4;
60816;PMS5003;51921;51.518;-3.188;2023-07-20T16:02:12;2;2;
60816;PMS5003;51921;51.518;-3.188;2023-07-20T16:04:38;3;3;
60816;PMS5003;51921;51.518;-3.188;2023-07-20T16:07:03;5;5;
60816;PMS5003;51921;51.518;-3.188;2023-07-20T16:09:28;2;2;
60816;PMS5003;51921;51.518;-3.188;2023-07-20T16:11:54;4;3;
60816;PMS5003;51921;51.518;-3.188;2023-07-20T16:14:19;3;3;
60816;PMS5003;51921;51.518;-3.188;2023-07-20T16:16:44;2;2;
60816;PMS5003;51921;51.518;-3.188;2023-07-20T16:19:10;2;2;
60816;PMS5003;51921;51.518;-3.188;2023-07-20T16:21:35;3;3;
60816;PMS5003;51921;51.518;-3.188;2023-07-20T16:24:00;3;3;
60816;PMS5003;51921;51.518;-3.188;2023-07-20T16:26:26;4;4;
60816;PMS5003;51921;51.518;-3.188;2023-07-20T16:28:51;7;6;
60816;PMS5003;51921;51.518;-3.188;2023-07-20T16:31:17;5;4;